Time;durP1;ratioP1;P1;durP2;ratioP2;P2;SDS_P1;SDS_P2;PMS_P1;PMS_P2;Temp;Humidity;BMP_temperature;BMP_pressure;BME280_temperature;BME280_humidity;BME280_pressure;Samples;Min_cycle;Max_cycle;Signal;HPM_P1;HPM_P2
2021/11/16 00:09:10;;;;;;;48.65;21.58;;;;;;;6.16;100.00;101894.89;714049;1185;114021;-82
2021/11/16 00:24:17;;;;;;;39.45;18.00;;;;;;;6.10;100.00;101884.77;714067;1177;113945;-82
2021/11/16 00:39:21;;;;;;;42.45;19.58;;;;;;;6.11;100.00;101866.45;713966;1176;114451;-82
2021/11/16 00:54:23;;;;;;;39.08;18.00;;;;;;;6.18;100.00;101864.41;714042;1177;113854;-84
2021/11/16 01:09:26;;;;;;;34.17;16.70;;;;;;;6.22;100.00;101852.10;713914;1176;114288;-81
2021/11/16 01:24:28;;;;;;;47.83;19.63;;;;;;;6.29;100.00;101843.08;714126;1196;114081;-81
2021/11/16 01:39:30;;;;;;;40.35;19.73;;;;;;;6.47;100.00;101842.23;714243;1188;114689;-81
2021/11/16 01:54:34;;;;;;;40.95;19.18;;;;;;;6.55;100.00;101822.80;714224;1200;114060;-82
2021/11/16 02:09:36;;;;;;;42.15;19.60;;;;;;;6.57;100.00;101816.60;714569;1181;113877;-81
2021/11/16 02:24:39;;;;;;;51.00;21.87;;;;;;;6.46;100.00;101793.61;714183;1178;113960;-82
2021/11/16 02:39:42;;;;;;;44.50;20.90;;;;;;;6.47;100.00;101784.88;714448;1185;114092;-82
2021/11/16 02:54:44;;;;;;;52.85;22.28;;;;;;;6.63;100.00;101776.34;714366;1177;113917;-81
2021/11/16 03:09:50;;;;;;;71.90;33.03;;;;;;;6.71;100.00;101763.77;714123;1199;114865;-81
2021/11/16 03:24:56;;;;;;;55.98;26.38;;;;;;;6.56;100.00;101754.93;714265;1180;113949;-81
2021/11/16 03:40:00;;;;;;;68.83;34.83;;;;;;;6.60;100.00;101740.83;714055;1168;113979;-81
2021/11/16 03:55:03;;;;;;;47.40;21.23;;;;;;;6.67;100.00;101725.72;714255;1205;114239;-80
2021/11/16 04:10:11;;;;;;;61.15;30.88;;;;;;;6.65;100.00;101710.16;714140;1189;113884;-80
2021/11/16 04:25:13;;;;;;;47.43;23.43;;;;;;;6.62;100.00;101715.50;714380;1177;113844;-80
2021/11/16 04:40:21;;;;;;;56.43;26.97;;;;;;;6.52;100.00;101702.98;714148;1202;114958;-80
2021/11/16 05:10:35;;;;;;;88.23;36.48;;;;;;;6.64;100.00;101676.33;714497;1200;114898;-80
2021/11/16 05:25:37;;;;;;;77.35;37.23;;;;;;;6.58;100.00;101667.03;714249;1202;115640;-80
2021/11/16 05:40:39;;;;;;;57.25;26.78;;;;;;;6.61;100.00;101672.11;714158;1200;113901;-79
2021/11/16 05:55:47;;;;;;;60.47;24.43;;;;;;;6.65;100.00;101678.86;714368;1205;113926;-80
2021/11/16 06:10:50;;;;;;;48.77;22.23;;;;;;;6.59;100.00;101673.94;714430;1200;114616;-80
2021/11/16 06:25:52;;;;;;;54.35;23.90;;;;;;;6.60;100.00;101674.80;715555;1203;113980;-79
2021/11/16 06:40:54;;;;;;;58.20;24.60;;;;;;;6.49;100.00;101685.73;714385;1203;115700;-80
2021/11/16 06:55:58;;;;;;;56.55;25.25;;;;;;;6.42;100.00;101682.58;714521;1203;114764;-81
2021/11/16 07:11:16;;;;;;;62.13;25.63;;;;;;;6.50;100.00;101669.17;715488;1200;114275;-76
2021/11/16 07:26:19;;;;;;;107.68;45.25;;;;;;;6.49;100.00;101660.52;715020;1199;114010;-79
2021/11/16 07:41:25;;;;;;;61.23;27.83;;;;;;;6.42;100.00;101645.25;714956;1202;115181;-75
2021/11/16 07:56:27;;;;;;;53.78;23.65;;;;;;;6.44;100.00;101649.47;715988;1200;114842;-75
2021/11/16 08:11:43;;;;;;;90.60;33.63;;;;;;;6.59;100.00;101641.81;715566;1199;115448;-76
2021/11/16 08:26:48;;;;;;;78.97;30.67;;;;;;;6.62;100.00;101618.18;715963;1192;114766;-76
2021/11/16 08:41:51;;;;;;;88.70;33.70;;;;;;;6.47;100.00;101625.84;714436;1202;114722;-76
2021/11/16 08:56:54;;;;;;;131.00;57.98;;;;;;;6.76;100.00;101609.67;715189;1200;113837;-77
2021/11/16 09:12:02;;;;;;;134.47;65.27;;;;;;;6.85;100.00;101617.03;715712;1199;114211;-74
2021/11/16 09:42:13;;;;;;;74.43;32.75;;;;;;;6.92;100.00;101571.43;714542;1177;114436;-74
2021/11/16 09:57:17;;;;;;;57.85;26.80;;;;;;;6.87;100.00;101559.55;714687;1199;114458;-75
2021/11/16 10:12:24;;;;;;;55.23;27.23;;;;;;;6.92;100.00;101539.30;714541;1188;114120;-74
2021/11/16 10:27:32;;;;;;;51.88;23.50;;;;;;;6.90;100.00;101515.90;714427;1200;114747;-75
2021/11/16 10:42:42;;;;;;;105.87;52.93;;;;;;;6.87;100.00;101502.17;714447;1176;114298;-73
2021/11/16 10:58:03;;;;;;;58.95;25.90;;;;;;;6.88;100.00;101503.86;714532;1200;114437;-75
2021/11/16 11:13:26;;;;;;;53.47;22.80;;;;;;;6.81;100.00;101493.74;714621;1200;113879;-71
2021/11/16 11:28:40;;;;;;;52.87;20.87;;;;;;;6.89;100.00;101488.13;714736;1200;113856;-73
2021/11/16 11:43:43;;;;;;;43.83;19.70;;;;;;;6.91;100.00;101480.20;719636;1195;114372;-72
2021/11/16 11:58:45;;;;;;;46.73;19.20;;;;;;;6.94;100.00;101475.67;714766;1174;114332;-75
2021/11/16 12:13:49;;;;;;;44.55;20.60;;;;;;;6.85;100.00;101464.88;724637;1202;114521;-71
2021/11/16 12:28:52;;;;;;;49.93;23.30;;;;;;;6.89;100.00;101451.60;719046;1199;114637;-72
2021/11/16 12:43:56;;;;;;;67.50;24.00;;;;;;;6.93;100.00;101434.02;717912;1200;114022;-74
2021/11/16 12:58:58;;;;;;;87.77;37.43;;;;;;;6.93;100.00;101408.77;714594;1200;115212;-72
2021/11/16 13:14:01;;;;;;;72.43;27.73;;;;;;;6.88;100.00;101391.69;714917;1199;115768;-72
2021/11/16 13:29:22;;;;;;;79.70;32.50;;;;;;;6.86;100.00;101383.92;714181;1200;113846;-72
2021/11/16 13:44:28;;;;;;;96.45;38.60;;;;;;;6.90;100.00;101382.00;714397;1204;115374;-72
2021/11/16 13:59:31;;;;;;;61.28;26.18;;;;;;;6.91;100.00;101360.20;714409;1176;114014;-72
2021/11/16 14:14:36;;;;;;;189.08;53.05;;;;;;;6.99;100.00;101343.20;714189;1200;113290;-72
2021/11/16 14:29:38;;;;;;;77.60;29.58;;;;;;;6.93;100.00;101334.89;714164;1199;114070;-72
2021/11/16 14:44:46;;;;;;;105.88;38.83;;;;;;;6.86;100.00;101323.92;714312;1203;114195;-72
2021/11/16 14:59:48;;;;;;;85.93;33.93;;;;;;;6.86;100.00;101320.49;714067;1178;113946;-72
2021/11/16 15:14:52;;;;;;;425.30;128.10;;;;;;;6.98;100.00;101319.79;714194;1202;114110;-73
2021/11/16 15:30:17;;;;;;;104.20;42.18;;;;;;;6.93;100.00;101303.58;714374;1199;114171;-73
2021/11/16 15:45:23;;;;;;;97.80;36.88;;;;;;;6.86;100.00;101299.63;714271;1202;115683;-73
2021/11/16 16:00:26;;;;;;;113.47;40.83;;;;;;;6.69;100.00;101290.99;714262;1200;115374;-73
2021/11/16 16:15:35;;;;;;;100.55;36.10;;;;;;;6.78;100.00;101290.48;714608;1200;114559;-72
2021/11/16 16:30:41;;;;;;;100.58;37.38;;;;;;;6.81;100.00;101298.12;714712;1202;115727;-73
2021/11/16 16:45:44;;;;;;;104.73;38.70;;;;;;;6.91;100.00;101276.73;714279;1200;114051;-72
2021/11/16 17:00:47;;;;;;;83.15;30.50;;;;;;;6.96;100.00;101265.09;713909;1176;114085;-72
2021/11/16 17:15:50;;;;;;;95.48;34.83;;;;;;;6.98;100.00;101263.25;714243;1177;114611;-72
2021/11/16 17:30:52;;;;;;;122.60;45.17;;;;;;;7.02;100.00;101236.97;713931;1175;114511;-71
2021/11/16 17:45:55;;;;;;;90.20;34.45;;;;;;;7.07;100.00;101219.29;713997;1176;114093;-72
2021/11/16 18:00:57;;;;;;;99.73;34.50;;;;;;;7.05;100.00;101219.38;714092;1200;115203;-72
2021/11/16 18:16:00;;;;;;;107.00;37.17;;;;;;;7.09;100.00;101207.00;713916;1178;113992;-73
2021/11/16 18:31:06;;;;;;;114.20;39.27;;;;;;;7.08;100.00;101177.45;713970;1196;114613;-72
2021/11/16 18:46:58;;;;;;;105.95;37.63;;;;;;;7.11;100.00;101173.81;714181;1177;114632;-70
2021/11/16 19:01:32;;;;;;;606.35;248.20;;;;;;;7.20;100.00;101172.44;713751;1200;114209;-71
2021/11/16 19:16:36;;;;;;;172.33;65.28;;;;;;;7.29;100.00;101151.83;713906;1174;114849;-74
2021/11/16 19:31:39;;;;;;;366.07;118.07;;;;;;;7.30;100.00;101145.69;714142;1181;115789;-73
2021/11/16 19:46:41;;;;;;;150.95;55.75;;;;;;;7.31;100.00;101136.08;714289;1200;115101;-73
2021/11/16 20:01:44;;;;;;;283.03;94.63;;;;;;;7.28;100.00;101128.44;714016;1200;114760;-72
2021/11/16 20:16:47;;;;;;;181.60;63.85;;;;;;;7.29;100.00;101127.52;713998;1174;114366;-71
2021/11/16 20:32:12;;;;;;;148.40;53.93;;;;;;;7.37;100.00;101117.44;713965;1178;115156;-72
2021/11/16 21:02:36;;;;;;;126.70;44.38;;;;;;;7.44;100.00;101100.48;714471;1200;114147;-71
2021/11/16 21:17:40;;;;;;;101.18;40.20;;;;;;;7.46;100.00;101082.93;714555;1199;114267;-73
2021/11/16 21:32:42;;;;;;;116.50;41.27;;;;;;;7.46;100.00;101072.48;714556;1199;115056;-73
2021/11/16 21:47:44;;;;;;;102.03;34.78;;;;;;;7.50;100.00;101055.69;715150;1192;116321;-71
2021/11/16 22:02:47;;;;;;;98.95;39.03;;;;;;;7.54;100.00;101060.74;714499;1199;114373;-72
2021/11/16 22:17:50;;;;;;;97.53;37.08;;;;;;;7.58;100.00;101049.16;714036;1199;114894;-71
2021/11/16 22:32:55;;;;;;;100.50;36.60;;;;;;;7.63;100.00;101039.27;713931;1199;114644;-71
2021/11/16 22:47:57;;;;;;;103.70;39.80;;;;;;;7.63;100.00;101029.64;713927;1176;114484;-71
